KDRO/DRO METAR and TAF weather

Enter ICAO airport designator
Station Type Date Time Source
KDRO METAR 2018/07/21 10:53 UTC NOAA

KDRO 211053Z AUTO 07003KT 10SM CLR 18/11 A3031 RMK AO2 SLP151 T01830111


Station Type Date Time Source
KDRO Decoded METAR 2018/07/21 10:53 UTC NOAA

DURANGO-LA PLATA COUNTY AIRPORT , CO, United States (KDRO) 37-09N 107-46W 2035M
Jul 21, 2018 - 06:53 AM EDT / 2018.07.21 1053 UTC
Wind: from the ENE (070 degrees) at 3 MPH (3 KT):0
Visibility: 10 mile(s):0
Sky conditions: clear
Temperature: 64.9 F (18.3 C)
Dew Point: 52.0 F (11.1 C)
Relative Humidity: 62%
Pressure (altimeter): 30.31 in. Hg (1026 hPa)
ob: KDRO 211053Z AUTO 07003KT 10SM CLR 18/11 A3031 RMK AO2 SLP151 T01830111
cycle: 11

Station Type Date Time Source
KDRO TAF 2018/07/21 12:42 UTC NOAA

TAF KDRO 211139Z 2112/2212 07003KT P6SM VCSH FEW080 OVC130
FM211600 27007KT P6SM FEW100 SCT110
FM212100 30007KT P6SM VCTS SCT090CB BKN200
FM220300 36005KT P6SM VCSH SCT090 BKN130


Example: see airport list